sensor_id;sensor_type;location;lat;lon;timestamp;P1;durP1;ratioP1;P2;durP2;ratioP2
30127;SDS011;16942;53.196;6.592;2023-07-31T00:00:02;8.37;;;4.30;;
30127;SDS011;16942;53.196;6.592;2023-07-31T00:02:28;7.87;;;3.97;;
30127;SDS011;16942;53.196;6.592;2023-07-31T00:04:54;4.50;;;4.10;;
30127;SDS011;16942;53.196;6.592;2023-07-31T00:07:20;4.67;;;3.80;;
30127;SDS011;16942;53.196;6.592;2023-07-31T00:09:46;5.03;;;4.00;;
30127;SDS011;16942;53.196;6.592;2023-07-31T00:12:12;6.63;;;4.10;;
30127;SDS011;16942;53.196;6.592;2023-07-31T00:14:38;6.50;;;4.10;;
30127;SDS011;16942;53.196;6.592;2023-07-31T00:17:04;10.07;;;4.40;;
30127;SDS011;16942;53.196;6.592;2023-07-31T00:19:30;5.67;;;3.67;;
30127;SDS011;16942;53.196;6.592;2023-07-31T00:21:56;4.40;;;3.40;;
30127;SDS011;16942;53.196;6.592;2023-07-31T00:24:22;4.47;;;3.00;;
30127;SDS011;16942;53.196;6.592;2023-07-31T00:26:48;3.53;;;2.80;;
30127;SDS011;16942;53.196;6.592;2023-07-31T00:29:14;4.70;;;3.00;;
30127;SDS011;16942;53.196;6.592;2023-07-31T00:31:40;4.43;;;3.20;;
30127;SDS011;16942;53.196;6.592;2023-07-31T00:34:06;4.10;;;3.10;;
30127;SDS011;16942;53.196;6.592;2023-07-31T00:36:32;4.57;;;2.47;;
30127;SDS011;16942;53.196;6.592;2023-07-31T00:38:58;3.20;;;2.90;;
30127;SDS011;16942;53.196;6.592;2023-07-31T00:41:24;5.77;;;2.77;;
30127;SDS011;16942;53.196;6.592;2023-07-31T00:43:50;3.40;;;3.10;;
30127;SDS011;16942;53.196;6.592;2023-07-31T00:46:16;3.27;;;2.97;;
30127;SDS011;16942;53.196;6.592;2023-07-31T00:48:42;4.93;;;3.10;;
30127;SDS011;16942;53.196;6.592;2023-07-31T00:51:09;3.83;;;3.20;;
30127;SDS011;16942;53.196;6.592;2023-07-31T00:53:35;5.10;;;3.03;;
30127;SDS011;16942;53.196;6.592;2023-07-31T00:56:01;4.00;;;3.13;;
30127;SDS011;16942;53.196;6.592;2023-07-31T00:58:27;6.23;;;2.63;;
30127;SDS011;16942;53.196;6.592;2023-07-31T01:00:53;3.97;;;3.37;;
30127;SDS011;16942;53.196;6.592;2023-07-31T01:03:19;4.60;;;3.27;;
30127;SDS011;16942;53.196;6.592;2023-07-31T01:08:44;6.03;;;3.43;;
30127;SDS011;16942;53.196;6.592;2023-07-31T01:11:16;4.40;;;3.30;;
30127;SDS011;16942;53.196;6.592;2023-07-31T01:13:44;4.43;;;3.63;;
30127;SDS011;16942;53.196;6.592;2023-07-31T01:16:10;4.50;;;3.03;;
30127;SDS011;16942;53.196;6.592;2023-07-31T01:18:36;4.00;;;2.73;;
30127;SDS011;16942;53.196;6.592;2023-07-31T01:23:51;3.37;;;3.03;;
30127;SDS011;16942;53.196;6.592;2023-07-31T01:26:24;4.70;;;3.37;;
30127;SDS011;16942;53.196;6.592;2023-07-31T01:29:00;2.90;;;2.60;;
30127;SDS011;16942;53.196;6.592;2023-07-31T01:31:27;3.13;;;2.83;;
30127;SDS011;16942;53.196;6.592;2023-07-31T01:33:55;6.30;;;3.20;;
30127;SDS011;16942;53.196;6.592;2023-07-31T01:36:22;3.40;;;3.10;;
30127;SDS011;16942;53.196;6.592;2023-07-31T01:38:48;4.93;;;3.40;;
30127;SDS011;16942;53.196;6.592;2023-07-31T01:41:18;3.30;;;2.80;;
30127;SDS011;16942;53.196;6.592;2023-07-31T01:43:45;3.97;;;3.03;;
30127;SDS011;16942;53.196;6.592;2023-07-31T01:46:11;3.53;;;3.07;;
30127;SDS011;16942;53.196;6.592;2023-07-31T01:48:37;3.47;;;3.13;;
30127;SDS011;16942;53.196;6.592;2023-07-31T01:51:03;12.10;;;2.90;;
30127;SDS011;16942;53.196;6.592;2023-07-31T01:53:30;2.90;;;2.20;;
30127;SDS011;16942;53.196;6.592;2023-07-31T01:55:57;3.20;;;2.40;;
30127;SDS011;16942;53.196;6.592;2023-07-31T01:58:23;2.50;;;2.30;;
30127;SDS011;16942;53.196;6.592;2023-07-31T02:00:49;2.60;;;2.10;;
30127;SDS011;16942;53.196;6.592;2023-07-31T02:03:15;2.23;;;2.00;;
30127;SDS011;16942;53.196;6.592;2023-07-31T02:05:44;2.17;;;1.97;;
30127;SDS011;16942;53.196;6.592;2023-07-31T02:08:10;1.70;;;1.60;;
30127;SDS011;16942;53.196;6.592;2023-07-31T02:10:36;7.40;;;1.90;;
30127;SDS011;16942;53.196;6.592;2023-07-31T02:13:02;2.97;;;1.70;;
30127;SDS011;16942;53.196;6.592;2023-07-31T02:15:29;2.00;;;1.83;;
30127;SDS011;16942;53.196;6.592;2023-07-31T02:17:55;2.47;;;1.40;;
30127;SDS011;16942;53.196;6.592;2023-07-31T02:20:21;1.43;;;1.33;;
30127;SDS011;16942;53.196;6.592;2023-07-31T02:22:47;1.27;;;1.17;;
30127;SDS011;16942;53.196;6.592;2023-07-31T02:25:13;2.10;;;1.30;;
30127;SDS011;16942;53.196;6.592;2023-07-31T02:27:39;2.40;;;1.37;;
30127;SDS011;16942;53.196;6.592;2023-07-31T02:30:06;1.30;;;1.17;;
30127;SDS011;16942;53.196;6.592;2023-07-31T02:32:32;1.40;;;1.30;;
30127;SDS011;16942;53.196;6.592;2023-07-31T02:34:58;2.47;;;1.50;;
30127;SDS011;16942;53.196;6.592;2023-07-31T02:37:24;1.63;;;1.30;;
30127;SDS011;16942;53.196;6.592;2023-07-31T02:39:50;2.27;;;1.30;;
30127;SDS011;16942;53.196;6.592;2023-07-31T02:42:16;3.63;;;1.30;;
30127;SDS011;16942;53.196;6.592;2023-07-31T02:44:42;1.70;;;1.33;;
30127;SDS011;16942;53.196;6.592;2023-07-31T02:47:08;1.70;;;1.33;;
30127;SDS011;16942;53.196;6.592;2023-07-31T02:49:34;1.80;;;1.33;;
30127;SDS011;16942;53.196;6.592;2023-07-31T02:52:00;1.20;;;1.10;;
30127;SDS011;16942;53.196;6.592;2023-07-31T02:54:26;2.40;;;1.30;;
30127;SDS011;16942;53.196;6.592;2023-07-31T02:56:52;1.73;;;1.20;;
30127;SDS011;16942;53.196;6.592;2023-07-31T02:59:19;2.13;;;1.50;;
30127;SDS011;16942;53.196;6.592;2023-07-31T03:01:45;1.30;;;1.20;;
30127;SDS011;16942;53.196;6.592;2023-07-31T03:04:11;1.93;;;1.20;;
30127;SDS011;16942;53.196;6.592;2023-07-31T03:06:37;1.80;;;1.30;;
30127;SDS011;16942;53.196;6.592;2023-07-31T03:09:04;2.50;;;1.20;;
30127;SDS011;16942;53.196;6.592;2023-07-31T03:11:30;1.10;;;1.00;;
30127;SDS011;16942;53.196;6.592;2023-07-31T03:13:55;2.43;;;1.33;;
30127;SDS011;16942;53.196;6.592;2023-07-31T03:16:21;1.20;;;1.10;;
30127;SDS011;16942;53.196;6.592;2023-07-31T03:18:47;2.23;;;1.20;;
30127;SDS011;16942;53.196;6.592;2023-07-31T03:21:14;1.13;;;1.03;;
30127;SDS011;16942;53.196;6.592;2023-07-31T03:23:40;1.63;;;1.00;;
30127;SDS011;16942;53.196;6.592;2023-07-31T03:26:07;3.00;;;1.27;;
30127;SDS011;16942;53.196;6.592;2023-07-31T03:28:33;1.70;;;1.23;;
30127;SDS011;16942;53.196;6.592;2023-07-31T03:30:59;1.27;;;1.00;;
30127;SDS011;16942;53.196;6.592;2023-07-31T03:33:25;1.00;;;0.90;;
30127;SDS011;16942;53.196;6.592;2023-07-31T03:35:51;1.80;;;1.23;;
30127;SDS011;16942;53.196;6.592;2023-07-31T03:38:17;1.53;;;1.00;;
30127;SDS011;16942;53.196;6.592;2023-07-31T03:40:43;0.73;;;0.73;;
30127;SDS011;16942;53.196;6.592;2023-07-31T03:43:10;2.30;;;1.30;;
30127;SDS011;16942;53.196;6.592;2023-07-31T03:45:36;2.93;;;1.10;;
30127;SDS011;16942;53.196;6.592;2023-07-31T03:48:02;2.27;;;1.03;;
30127;SDS011;16942;53.196;6.592;2023-07-31T03:50:28;3.27;;;1.40;;
30127;SDS011;16942;53.196;6.592;2023-07-31T03:52:54;1.17;;;1.03;;
30127;SDS011;16942;53.196;6.592;2023-07-31T03:55:20;1.20;;;1.00;;
30127;SDS011;16942;53.196;6.592;2023-07-31T03:57:47;3.17;;;1.13;;
30127;SDS011;16942;53.196;6.592;2023-07-31T04:00:13;2.27;;;1.10;;
30127;SDS011;16942;53.196;6.592;2023-07-31T04:02:39;1.37;;;1.00;;
30127;SDS011;16942;53.196;6.592;2023-07-31T04:05:05;3.90;;;1.20;;
30127;SDS011;16942;53.196;6.592;2023-07-31T04:07:31;2.17;;;1.10;;
30127;SDS011;16942;53.196;6.592;2023-07-31T04:09:57;1.23;;;1.03;;
30127;SDS011;16942;53.196;6.592;2023-07-31T04:12:23;1.37;;;0.90;;
30127;SDS011;16942;53.196;6.592;2023-07-31T04:14:49;1.20;;;1.10;;
30127;SDS011;16942;53.196;6.592;2023-07-31T04:17:17;1.23;;;1.10;;
30127;SDS011;16942;53.196;6.592;2023-07-31T04:19:43;1.83;;;1.13;;
30127;SDS011;16942;53.196;6.592;2023-07-31T04:22:09;2.23;;;1.07;;
30127;SDS011;16942;53.196;6.592;2023-07-31T04:24:35;3.67;;;1.30;;
30127;SDS011;16942;53.196;6.592;2023-07-31T04:27:01;3.33;;;1.20;;
30127;SDS011;16942;53.196;6.592;2023-07-31T04:29:29;0.80;;;0.80;;
30127;SDS011;16942;53.196;6.592;2023-07-31T04:31:55;1.63;;;1.00;;
30127;SDS011;16942;53.196;6.592;2023-07-31T04:34:21;1.20;;;1.10;;
30127;SDS011;16942;53.196;6.592;2023-07-31T04:36:47;2.53;;;1.20;;
30127;SDS011;16942;53.196;6.592;2023-07-31T04:39:13;4.30;;;1.40;;
30127;SDS011;16942;53.196;6.592;2023-07-31T04:41:39;1.00;;;0.90;;
30127;SDS011;16942;53.196;6.592;2023-07-31T04:44:05;3.70;;;1.00;;
30127;SDS011;16942;53.196;6.592;2023-07-31T04:46:31;2.50;;;1.20;;
30127;SDS011;16942;53.196;6.592;2023-07-31T04:48:57;1.77;;;0.90;;
30127;SDS011;16942;53.196;6.592;2023-07-31T04:51:23;2.77;;;1.43;;
30127;SDS011;16942;53.196;6.592;2023-07-31T04:53:50;1.53;;;1.00;;
30127;SDS011;16942;53.196;6.592;2023-07-31T04:56:16;1.83;;;1.00;;
30127;SDS011;16942;53.196;6.592;2023-07-31T04:58:42;1.60;;;0.93;;
30127;SDS011;16942;53.196;6.592;2023-07-31T05:01:08;1.20;;;0.90;;
30127;SDS011;16942;53.196;6.592;2023-07-31T05:03:34;0.93;;;0.93;;
30127;SDS011;16942;53.196;6.592;2023-07-31T05:06:00;0.80;;;0.80;;
30127;SDS011;16942;53.196;6.592;2023-07-31T05:08:26;1.30;;;1.03;;
30127;SDS011;16942;53.196;6.592;2023-07-31T05:10:52;4.60;;;2.47;;
30127;SDS011;16942;53.196;6.592;2023-07-31T05:13:18;1.27;;;0.93;;
30127;SDS011;16942;53.196;6.592;2023-07-31T05:15:44;2.30;;;0.90;;
30127;SDS011;16942;53.196;6.592;2023-07-31T05:18:10;0.70;;;0.70;;
30127;SDS011;16942;53.196;6.592;2023-07-31T05:20:36;1.63;;;0.67;;
30127;SDS011;16942;53.196;6.592;2023-07-31T05:23:02;0.70;;;0.70;;
30127;SDS011;16942;53.196;6.592;2023-07-31T05:25:28;5.27;;;0.60;;
30127;SDS011;16942;53.196;6.592;2023-07-31T05:27:54;3.07;;;0.70;;
30127;SDS011;16942;53.196;6.592;2023-07-31T05:30:20;0.80;;;0.80;;
30127;SDS011;16942;53.196;6.592;2023-07-31T05:32:46;0.80;;;0.70;;
30127;SDS011;16942;53.196;6.592;2023-07-31T05:35:12;3.33;;;1.10;;
30127;SDS011;16942;53.196;6.592;2023-07-31T05:37:38;1.40;;;0.80;;
30127;SDS011;16942;53.196;6.592;2023-07-31T05:40:05;1.70;;;1.20;;
30127;SDS011;16942;53.196;6.592;2023-07-31T05:42:31;2.23;;;1.03;;
30127;SDS011;16942;53.196;6.592;2023-07-31T05:44:57;1.63;;;0.90;;
30127;SDS011;16942;53.196;6.592;2023-07-31T05:47:23;4.37;;;2.20;;
30127;SDS011;16942;53.196;6.592;2023-07-31T05:49:49;3.00;;;0.90;;
30127;SDS011;16942;53.196;6.592;2023-07-31T05:52:17;1.33;;;0.97;;
30127;SDS011;16942;53.196;6.592;2023-07-31T05:54:43;1.67;;;1.10;;
30127;SDS011;16942;53.196;6.592;2023-07-31T05:57:11;1.13;;;0.83;;
30127;SDS011;16942;53.196;6.592;2023-07-31T05:59:37;2.53;;;1.20;;
30127;SDS011;16942;53.196;6.592;2023-07-31T06:02:03;1.63;;;1.13;;
30127;SDS011;16942;53.196;6.592;2023-07-31T06:04:29;3.60;;;1.03;;
30127;SDS011;16942;53.196;6.592;2023-07-31T06:06:56;1.57;;;1.20;;
30127;SDS011;16942;53.196;6.592;2023-07-31T06:09:22;2.20;;;1.20;;
30127;SDS011;16942;53.196;6.592;2023-07-31T06:11:48;3.70;;;1.67;;
30127;SDS011;16942;53.196;6.592;2023-07-31T06:14:14;2.40;;;1.53;;
30127;SDS011;16942;53.196;6.592;2023-07-31T06:16:40;2.30;;;1.67;;
30127;SDS011;16942;53.196;6.592;2023-07-31T06:19:06;2.13;;;1.63;;
30127;SDS011;16942;53.196;6.592;2023-07-31T06:21:32;5.73;;;1.97;;
30127;SDS011;16942;53.196;6.592;2023-07-31T06:23:59;6.97;;;1.90;;
30127;SDS011;16942;53.196;6.592;2023-07-31T06:26:25;6.23;;;2.40;;
30127;SDS011;16942;53.196;6.592;2023-07-31T06:28:50;4.70;;;2.33;;
30127;SDS011;16942;53.196;6.592;2023-07-31T06:31:16;7.77;;;2.57;;
30127;SDS011;16942;53.196;6.592;2023-07-31T06:33:45;5.13;;;2.40;;
30127;SDS011;16942;53.196;6.592;2023-07-31T06:36:11;10.73;;;3.17;;
30127;SDS011;16942;53.196;6.592;2023-07-31T06:38:37;11.27;;;4.27;;
30127;SDS011;16942;53.196;6.592;2023-07-31T06:41:03;15.80;;;4.00;;
30127;SDS011;16942;53.196;6.592;2023-07-31T06:43:29;10.67;;;3.93;;
30127;SDS011;16942;53.196;6.592;2023-07-31T06:45:55;11.70;;;5.03;;
30127;SDS011;16942;53.196;6.592;2023-07-31T06:48:21;18.50;;;4.83;;
30127;SDS011;16942;53.196;6.592;2023-07-31T06:50:47;16.17;;;6.07;;
30127;SDS011;16942;53.196;6.592;2023-07-31T06:53:13;15.17;;;5.30;;
30127;SDS011;16942;53.196;6.592;2023-07-31T06:55:39;18.90;;;5.57;;
30127;SDS011;16942;53.196;6.592;2023-07-31T06:58:05;21.70;;;6.97;;
30127;SDS011;16942;53.196;6.592;2023-07-31T07:00:32;19.77;;;5.40;;
30127;SDS011;16942;53.196;6.592;2023-07-31T07:02:58;24.20;;;6.43;;
30127;SDS011;16942;53.196;6.592;2023-07-31T07:05:24;22.77;;;6.13;;
30127;SDS011;16942;53.196;6.592;2023-07-31T07:07:50;17.23;;;6.13;;
30127;SDS011;16942;53.196;6.592;2023-07-31T07:10:17;16.93;;;5.80;;
30127;SDS011;16942;53.196;6.592;2023-07-31T07:12:43;14.93;;;6.50;;
30127;SDS011;16942;53.196;6.592;2023-07-31T07:15:09;27.07;;;7.37;;
30127;SDS011;16942;53.196;6.592;2023-07-31T07:17:35;21.17;;;5.97;;
30127;SDS011;16942;53.196;6.592;2023-07-31T07:20:01;19.83;;;6.07;;
30127;SDS011;16942;53.196;6.592;2023-07-31T07:22:28;15.80;;;5.20;;
30127;SDS011;16942;53.196;6.592;2023-07-31T07:24:54;22.30;;;6.13;;
30127;SDS011;16942;53.196;6.592;2023-07-31T07:27:21;19.40;;;6.40;;
30127;SDS011;16942;53.196;6.592;2023-07-31T07:29:47;19.30;;;6.37;;
30127;SDS011;16942;53.196;6.592;2023-07-31T07:32:13;19.30;;;6.43;;
30127;SDS011;16942;53.196;6.592;2023-07-31T07:34:39;16.17;;;6.47;;
30127;SDS011;16942;53.196;6.592;2023-07-31T07:37:05;17.27;;;5.80;;
30127;SDS011;16942;53.196;6.592;2023-07-31T07:39:31;18.50;;;6.57;;
30127;SDS011;16942;53.196;6.592;2023-07-31T07:41:57;18.10;;;6.50;;
30127;SDS011;16942;53.196;6.592;2023-07-31T07:44:23;14.37;;;6.00;;
30127;SDS011;16942;53.196;6.592;2023-07-31T07:46:49;15.93;;;6.10;;
30127;SDS011;16942;53.196;6.592;2023-07-31T07:49:15;7.77;;;3.80;;
30127;SDS011;16942;53.196;6.592;2023-07-31T07:51:41;9.53;;;4.17;;
30127;SDS011;16942;53.196;6.592;2023-07-31T07:54:07;5.23;;;2.50;;
30127;SDS011;16942;53.196;6.592;2023-07-31T07:56:33;3.83;;;2.63;;
30127;SDS011;16942;53.196;6.592;2023-07-31T07:59:01;5.23;;;2.30;;
30127;SDS011;16942;53.196;6.592;2023-07-31T08:01:27;2.97;;;1.47;;
30127;SDS011;16942;53.196;6.592;2023-07-31T08:03:53;3.07;;;1.60;;
30127;SDS011;16942;53.196;6.592;2023-07-31T08:06:19;4.23;;;1.53;;
30127;SDS011;16942;53.196;6.592;2023-07-31T08:08:45;1.77;;;1.40;;
30127;SDS011;16942;53.196;6.592;2023-07-31T08:11:11;3.20;;;1.37;;
30127;SDS011;16942;53.196;6.592;2023-07-31T08:13:37;2.50;;;1.47;;
30127;SDS011;16942;53.196;6.592;2023-07-31T08:16:04;2.47;;;1.43;;
30127;SDS011;16942;53.196;6.592;2023-07-31T08:18:30;3.23;;;1.43;;
30127;SDS011;16942;53.196;6.592;2023-07-31T08:20:57;2.63;;;1.67;;
30127;SDS011;16942;53.196;6.592;2023-07-31T08:23:23;2.43;;;1.53;;
30127;SDS011;16942;53.196;6.592;2023-07-31T08:25:49;2.17;;;1.63;;
30127;SDS011;16942;53.196;6.592;2023-07-31T08:28:15;4.70;;;1.60;;
30127;SDS011;16942;53.196;6.592;2023-07-31T08:30:42;1.30;;;1.20;;
30127;SDS011;16942;53.196;6.592;2023-07-31T08:33:08;2.27;;;1.50;;
30127;SDS011;16942;53.196;6.592;2023-07-31T08:35:34;2.00;;;1.30;;
30127;SDS011;16942;53.196;6.592;2023-07-31T08:38:00;2.07;;;1.43;;
30127;SDS011;16942;53.196;6.592;2023-07-31T08:40:26;7.70;;;1.10;;
30127;SDS011;16942;53.196;6.592;2023-07-31T08:42:53;2.80;;;2.13;;
30127;SDS011;16942;53.196;6.592;2023-07-31T08:45:21;2.23;;;1.57;;
30127;SDS011;16942;53.196;6.592;2023-07-31T08:47:48;2.83;;;1.47;;
30127;SDS011;16942;53.196;6.592;2023-07-31T08:50:15;2.10;;;1.30;;
30127;SDS011;16942;53.196;6.592;2023-07-31T08:52:41;2.27;;;1.00;;
30127;SDS011;16942;53.196;6.592;2023-07-31T08:55:07;2.40;;;1.17;;
30127;SDS011;16942;53.196;6.592;2023-07-31T08:57:34;1.40;;;0.83;;
30127;SDS011;16942;53.196;6.592;2023-07-31T09:00:01;1.30;;;1.00;;
30127;SDS011;16942;53.196;6.592;2023-07-31T09:02:45;1.30;;;0.90;;
30127;SDS011;16942;53.196;6.592;2023-07-31T09:05:11;1.33;;;1.10;;
30127;SDS011;16942;53.196;6.592;2023-07-31T09:07:37;0.70;;;0.70;;
30127;SDS011;16942;53.196;6.592;2023-07-31T09:10:04;1.13;;;0.83;;
30127;SDS011;16942;53.196;6.592;2023-07-31T09:12:30;1.33;;;0.80;;
30127;SDS011;16942;53.196;6.592;2023-07-31T09:14:57;2.30;;;1.17;;
30127;SDS011;16942;53.196;6.592;2023-07-31T09:17:29;1.00;;;0.83;;
30127;SDS011;16942;53.196;6.592;2023-07-31T09:19:56;2.67;;;0.80;;
30127;SDS011;16942;53.196;6.592;2023-07-31T09:22:32;1.23;;;0.77;;
30127;SDS011;16942;53.196;6.592;2023-07-31T09:30:13;0.80;;;0.80;;
30127;SDS011;16942;53.196;6.592;2023-07-31T09:32:40;1.00;;;0.90;;
30127;SDS011;16942;53.196;6.592;2023-07-31T09:35:22;2.00;;;1.03;;
30127;SDS011;16942;53.196;6.592;2023-07-31T09:37:52;1.53;;;0.83;;
30127;SDS011;16942;53.196;6.592;2023-07-31T09:40:25;1.97;;;0.77;;
30127;SDS011;16942;53.196;6.592;2023-07-31T09:42:52;0.90;;;0.80;;
30127;SDS011;16942;53.196;6.592;2023-07-31T09:45:18;1.47;;;1.10;;
30127;SDS011;16942;53.196;6.592;2023-07-31T09:47:47;2.97;;;0.80;;
30127;SDS011;16942;53.196;6.592;2023-07-31T09:50:14;0.57;;;0.57;;
30127;SDS011;16942;53.196;6.592;2023-07-31T09:52:43;0.60;;;0.60;;
30127;SDS011;16942;53.196;6.592;2023-07-31T09:55:09;0.50;;;0.50;;
30127;SDS011;16942;53.196;6.592;2023-07-31T09:57:56;0.40;;;0.40;;
30127;SDS011;16942;53.196;6.592;2023-07-31T10:00:21;1.07;;;0.50;;
30127;SDS011;16942;53.196;6.592;2023-07-31T10:02:50;0.67;;;0.47;;
30127;SDS011;16942;53.196;6.592;2023-07-31T10:05:16;1.77;;;0.50;;
30127;SDS011;16942;53.196;6.592;2023-07-31T10:07:45;0.97;;;0.93;;
30127;SDS011;16942;53.196;6.592;2023-07-31T10:10:11;0.40;;;0.40;;
30127;SDS011;16942;53.196;6.592;2023-07-31T10:12:39;1.43;;;0.50;;
30127;SDS011;16942;53.196;6.592;2023-07-31T10:15:05;0.50;;;0.43;;
30127;SDS011;16942;53.196;6.592;2023-07-31T10:17:31;0.40;;;0.40;;
30127;SDS011;16942;53.196;6.592;2023-07-31T10:19:58;0.60;;;0.47;;
30127;SDS011;16942;53.196;6.592;2023-07-31T10:22:26;2.23;;;0.40;;
30127;SDS011;16942;53.196;6.592;2023-07-31T10:24:54;0.60;;;0.60;;
30127;SDS011;16942;53.196;6.592;2023-07-31T10:27:20;0.40;;;0.40;;
30127;SDS011;16942;53.196;6.592;2023-07-31T10:29:46;1.57;;;0.40;;
30127;SDS011;16942;53.196;6.592;2023-07-31T10:32:13;0.37;;;0.37;;
30127;SDS011;16942;53.196;6.592;2023-07-31T10:34:40;0.40;;;0.37;;
30127;SDS011;16942;53.196;6.592;2023-07-31T10:37:25;0.77;;;0.50;;
30127;SDS011;16942;53.196;6.592;2023-07-31T10:39:59;0.97;;;0.30;;
30127;SDS011;16942;53.196;6.592;2023-07-31T10:42:29;0.30;;;0.20;;
30127;SDS011;16942;53.196;6.592;2023-07-31T10:44:56;0.30;;;0.30;;
30127;SDS011;16942;53.196;6.592;2023-07-31T10:47:23;0.30;;;0.30;;
30127;SDS011;16942;53.196;6.592;2023-07-31T10:49:49;0.60;;;0.20;;
30127;SDS011;16942;53.196;6.592;2023-07-31T10:52:19;0.80;;;0.30;;
30127;SDS011;16942;53.196;6.592;2023-07-31T10:54:49;0.87;;;0.30;;
30127;SDS011;16942;53.196;6.592;2023-07-31T10:57:22;0.30;;;0.30;;
30127;SDS011;16942;53.196;6.592;2023-07-31T10:59:49;0.40;;;0.20;;
30127;SDS011;16942;53.196;6.592;2023-07-31T11:02:25;1.15;;;0.30;;
30127;SDS011;16942;53.196;6.592;2023-07-31T11:05:10;0.30;;;0.30;;
30127;SDS011;16942;53.196;6.592;2023-07-31T11:07:46;1.13;;;0.47;;
30127;SDS011;16942;53.196;6.592;2023-07-31T11:10:15;1.00;;;0.50;;
30127;SDS011;16942;53.196;6.592;2023-07-31T11:12:41;0.80;;;0.63;;
30127;SDS011;16942;53.196;6.592;2023-07-31T11:15:07;0.45;;;0.30;;
30127;SDS011;16942;53.196;6.592;2023-07-31T11:17:42;0.70;;;0.65;;
30127;SDS011;16942;53.196;6.592;2023-07-31T11:20:08;0.90;;;0.70;;
30127;SDS011;16942;53.196;6.592;2023-07-31T11:22:37;0.70;;;0.50;;
30127;SDS011;16942;53.196;6.592;2023-07-31T11:25:03;0.50;;;0.50;;
30127;SDS011;16942;53.196;6.592;2023-07-31T11:27:30;1.58;;;0.50;;
30127;SDS011;16942;53.196;6.592;2023-07-31T11:30:02;1.85;;;0.60;;
30127;SDS011;16942;53.196;6.592;2023-07-31T11:32:28;1.30;;;0.65;;
30127;SDS011;16942;53.196;6.592;2023-07-31T11:34:54;2.17;;;1.65;;
30127;SDS011;16942;53.196;6.592;2023-07-31T11:37:20;3.03;;;1.85;;
30127;SDS011;16942;53.196;6.592;2023-07-31T11:40:02;1.85;;;0.80;;
30127;SDS011;16942;53.196;6.592;2023-07-31T11:42:28;0.60;;;0.60;;
30127;SDS011;16942;53.196;6.592;2023-07-31T11:44:54;0.82;;;0.70;;
30127;SDS011;16942;53.196;6.592;2023-07-31T11:47:20;1.15;;;0.65;;
30127;SDS011;16942;53.196;6.592;2023-07-31T11:49:46;1.75;;;0.60;;
30127;SDS011;16942;53.196;6.592;2023-07-31T11:52:13;1.85;;;0.50;;
30127;SDS011;16942;53.196;6.592;2023-07-31T11:54:40;1.60;;;0.80;;
30127;SDS011;16942;53.196;6.592;2023-07-31T11:57:07;2.78;;;1.05;;
30127;SDS011;16942;53.196;6.592;2023-07-31T11:59:33;1.08;;;0.77;;
30127;SDS011;16942;53.196;6.592;2023-07-31T12:01:59;1.90;;;0.80;;
30127;SDS011;16942;53.196;6.592;2023-07-31T12:04:25;1.05;;;0.70;;
30127;SDS011;16942;53.196;6.592;2023-07-31T12:06:52;2.40;;;0.77;;
30127;SDS011;16942;53.196;6.592;2023-07-31T12:09:18;1.92;;;0.90;;
30127;SDS011;16942;53.196;6.592;2023-07-31T12:11:45;1.47;;;0.80;;
30127;SDS011;16942;53.196;6.592;2023-07-31T12:14:21;0.83;;;0.70;;
30127;SDS011;16942;53.196;6.592;2023-07-31T12:16:47;1.65;;;0.75;;
30127;SDS011;16942;53.196;6.592;2023-07-31T12:19:13;2.35;;;0.90;;
30127;SDS011;16942;53.196;6.592;2023-07-31T12:21:39;1.45;;;0.80;;
30127;SDS011;16942;53.196;6.592;2023-07-31T12:24:06;1.05;;;0.73;;
30127;SDS011;16942;53.196;6.592;2023-07-31T12:26:34;1.67;;;1.35;;
30127;SDS011;16942;53.196;6.592;2023-07-31T12:29:00;1.25;;;0.70;;
30127;SDS011;16942;53.196;6.592;2023-07-31T12:31:27;1.02;;;0.88;;
30127;SDS011;16942;53.196;6.592;2023-07-31T12:33:54;2.75;;;1.20;;
30127;SDS011;16942;53.196;6.592;2023-07-31T12:36:24;1.52;;;0.70;;
30127;SDS011;16942;53.196;6.592;2023-07-31T12:38:50;0.85;;;0.85;;
30127;SDS011;16942;53.196;6.592;2023-07-31T12:41:17;1.10;;;0.95;;
30127;SDS011;16942;53.196;6.592;2023-07-31T12:43:43;2.47;;;1.00;;
30127;SDS011;16942;53.196;6.592;2023-07-31T12:46:10;1.25;;;0.95;;
30127;SDS011;16942;53.196;6.592;2023-07-31T12:48:36;0.80;;;0.80;;
30127;SDS011;16942;53.196;6.592;2023-07-31T12:51:02;1.30;;;0.90;;
30127;SDS011;16942;53.196;6.592;2023-07-31T12:53:29;1.27;;;0.77;;
30127;SDS011;16942;53.196;6.592;2023-07-31T12:55:55;2.97;;;1.38;;
30127;SDS011;16942;53.196;6.592;2023-07-31T12:58:21;1.38;;;1.10;;
30127;SDS011;16942;53.196;6.592;2023-07-31T13:00:48;2.47;;;1.10;;
30127;SDS011;16942;53.196;6.592;2023-07-31T13:03:14;2.40;;;1.25;;
30127;SDS011;16942;53.196;6.592;2023-07-31T13:05:40;2.17;;;1.10;;
30127;SDS011;16942;53.196;6.592;2023-07-31T13:08:06;4.32;;;1.75;;
30127;SDS011;16942;53.196;6.592;2023-07-31T13:10:32;6.82;;;2.80;;
30127;SDS011;16942;53.196;6.592;2023-07-31T13:12:58;5.18;;;1.65;;
30127;SDS011;16942;53.196;6.592;2023-07-31T13:15:24;2.37;;;1.70;;
30127;SDS011;16942;53.196;6.592;2023-07-31T13:17:50;4.03;;;1.83;;
30127;SDS011;16942;53.196;6.592;2023-07-31T13:20:16;5.77;;;2.13;;
30127;SDS011;16942;53.196;6.592;2023-07-31T13:22:43;4.80;;;2.07;;
30127;SDS011;16942;53.196;6.592;2023-07-31T13:25:09;7.57;;;1.98;;
30127;SDS011;16942;53.196;6.592;2023-07-31T13:27:35;9.02;;;2.20;;
30127;SDS011;16942;53.196;6.592;2023-07-31T13:30:01;8.50;;;3.40;;
30127;SDS011;16942;53.196;6.592;2023-07-31T13:32:27;4.38;;;2.38;;
30127;SDS011;16942;53.196;6.592;2023-07-31T13:34:53;6.57;;;3.17;;
30127;SDS011;16942;53.196;6.592;2023-07-31T13:37:19;12.53;;;3.63;;
30127;SDS011;16942;53.196;6.592;2023-07-31T13:39:45;6.35;;;2.63;;
30127;SDS011;16942;53.196;6.592;2023-07-31T13:42:11;5.40;;;2.23;;
30127;SDS011;16942;53.196;6.592;2023-07-31T13:44:38;10.98;;;2.70;;
30127;SDS011;16942;53.196;6.592;2023-07-31T13:47:04;6.78;;;2.85;;
30127;SDS011;16942;53.196;6.592;2023-07-31T13:49:30;6.72;;;2.22;;
30127;SDS011;16942;53.196;6.592;2023-07-31T13:51:57;6.15;;;2.28;;
30127;SDS011;16942;53.196;6.592;2023-07-31T13:54:23;7.25;;;2.58;;
30127;SDS011;16942;53.196;6.592;2023-07-31T13:56:50;7.53;;;2.33;;
30127;SDS011;16942;53.196;6.592;2023-07-31T13:59:16;7.10;;;2.72;;
30127;SDS011;16942;53.196;6.592;2023-07-31T14:01:43;4.38;;;2.20;;
30127;SDS011;16942;53.196;6.592;2023-07-31T14:04:09;12.95;;;3.00;;
30127;SDS011;16942;53.196;6.592;2023-07-31T14:06:35;5.10;;;2.53;;
30127;SDS011;16942;53.196;6.592;2023-07-31T14:09:02;7.50;;;2.83;;
30127;SDS011;16942;53.196;6.592;2023-07-31T14:11:28;5.13;;;2.13;;
30127;SDS011;16942;53.196;6.592;2023-07-31T14:13:54;5.53;;;1.63;;
30127;SDS011;16942;53.196;6.592;2023-07-31T14:16:21;5.65;;;2.33;;
30127;SDS011;16942;53.196;6.592;2023-07-31T14:18:47;5.53;;;2.33;;
30127;SDS011;16942;53.196;6.592;2023-07-31T14:21:13;5.90;;;2.80;;
30127;SDS011;16942;53.196;6.592;2023-07-31T14:23:40;5.38;;;2.63;;
30127;SDS011;16942;53.196;6.592;2023-07-31T14:26:06;7.47;;;2.72;;
30127;SDS011;16942;53.196;6.592;2023-07-31T14:28:32;6.35;;;3.15;;
30127;SDS011;16942;53.196;6.592;2023-07-31T14:31:00;7.88;;;2.97;;
30127;SDS011;16942;53.196;6.592;2023-07-31T14:33:26;8.45;;;3.20;;
30127;SDS011;16942;53.196;6.592;2023-07-31T14:35:52;11.68;;;2.53;;
30127;SDS011;16942;53.196;6.592;2023-07-31T14:38:19;8.57;;;2.50;;
30127;SDS011;16942;53.196;6.592;2023-07-31T14:40:45;7.78;;;2.97;;
30127;SDS011;16942;53.196;6.592;2023-07-31T14:43:11;4.47;;;3.20;;
30127;SDS011;16942;53.196;6.592;2023-07-31T14:45:37;7.78;;;2.53;;
30127;SDS011;16942;53.196;6.592;2023-07-31T14:48:03;9.73;;;2.80;;
30127;SDS011;16942;53.196;6.592;2023-07-31T14:50:30;6.35;;;2.83;;
30127;SDS011;16942;53.196;6.592;2023-07-31T14:52:56;6.30;;;2.95;;